Terminal Aerodrome Forecast
Issued by NWS

Home | Current Version | Previous Version | Text Only | Print | Product List | Glossary On
Versions: 1 2 3 4 5 6 7 8 9 10 11 12 13 14 15
000
FTUS43 KJKL 292344
TAFSME
TAF
KSME 292344Z 3000/3024 17005KT P6SM SCT150
     FM300500 16004KT 5SM SHRA VCTS OVC040CB WS020/19035KT
     FM300700 19008KT 5SM SHRA VCTS OVC020CB WS020/19035KT
     FM301100 21007KT 3SM SHRA OVC008
     FM301500 25007KT 3SM SHRA BKN020
     FM301800 24012KT P6SM BKN040=

USA.gov is the U.S. government's official web portal to all federal, state and local government web resources and services.